Time;durP1;ratioP1;P1;durP2;ratioP2;P2;SDS_P1;SDS_P2;PMS_P1;PMS_P2;Temp;Humidity;BMP_temperature;BMP_pressure;BME280_temperature;BME280_humidity;BME280_pressure;Samples;Min_cycle;Max_cycle;Signal;HPM_P1;HPM_P2
2021/07/21 00:00:16;;;;;;;0.40;0.20;;;18.50;99.90;;;;;;4959490;29;20432;-66
2021/07/21 00:02:41;;;;;;;0.80;0.50;;;18.40;99.90;;;;;;4959683;29;20554;-67
2021/07/21 00:05:13;;;;;;;0.50;0.37;;;18.40;99.90;;;;;;4944906;29;21089;-66
2021/07/21 00:07:39;;;;;;;0.40;0.30;;;18.30;99.90;;;;;;4960811;29;20188;-67
2021/07/21 00:10:08;;;;;;;3.13;0.97;;;18.40;99.90;;;;;;4960356;29;20472;-66
2021/07/21 00:15:27;;;;;;;0.40;0.20;;;18.40;99.90;;;;;;4960308;29;20431;-66
2021/07/21 00:17:59;;;;;;;4.03;1.03;;;18.30;99.90;;;;;;4959968;29;20895;-67
2021/07/21 00:20:25;;;;;;;0.67;0.67;;;18.40;99.90;;;;;;4959364;29;20427;-67
2021/07/21 00:22:52;;;;;;;0.40;0.20;;;18.40;99.90;;;;;;4959339;29;20475;-67
2021/07/21 00:25:17;;;;;;;0.40;0.20;;;18.50;99.90;;;;;;4959458;29;20435;-64
2021/07/21 00:27:44;;;;;;;0.83;0.77;;;18.60;99.90;;;;;;4924819;29;20747;-65
2021/07/21 00:30:13;;;;;;;1.23;1.13;;;18.60;99.90;;;;;;4957532;29;20440;-64
2021/07/21 00:32:39;;;;;;;0.50;0.30;;;18.60;99.90;;;;;;4957390;29;20436;-64
2021/07/21 00:35:08;;;;;;;0.60;0.60;;;18.60;99.90;;;;;;4958923;29;20920;-67
2021/07/21 00:37:34;;;;;;;1.20;1.17;;;18.50;99.90;;;;;;4958936;29;20459;-67
2021/07/21 00:40:00;;;;;;;1.70;1.40;;;18.40;99.90;;;;;;4957264;29;20510;-63
2021/07/21 00:42:25;;;;;;;0.90;0.40;;;18.30;99.90;;;;;;4957208;29;20566;-64
2021/07/21 00:44:53;;;;;;;1.03;0.97;;;18.40;99.90;;;;;;4957232;29;20168;-64
2021/07/21 00:47:19;;;;;;;0.40;0.20;;;18.30;99.90;;;;;;4956957;29;20601;-64
2021/07/21 00:49:44;;;;;;;0.40;0.20;;;18.30;99.90;;;;;;4939972;29;20432;-64
2021/07/21 00:52:10;;;;;;;0.40;0.23;;;18.40;99.90;;;;;;4957027;29;20439;-64
2021/07/21 00:54:36;;;;;;;0.40;0.20;;;18.40;99.90;;;;;;4957012;29;20199;-64
2021/07/21 00:57:03;;;;;;;0.57;0.50;;;18.30;99.90;;;;;;4956390;28;20259;-64
2021/07/21 00:59:32;;;;;;;0.40;0.20;;;18.40;99.90;;;;;;4956796;29;20624;-64
2021/07/21 01:01:57;;;;;;;0.93;0.93;;;18.40;99.90;;;;;;4956643;29;20524;-64
2021/07/21 01:04:23;;;;;;;0.40;0.20;;;18.20;99.90;;;;;;4939909;29;21025;-64
2021/07/21 01:06:49;;;;;;;0.40;0.20;;;18.20;99.90;;;;;;4956573;29;20196;-64
2021/07/21 01:09:14;;;;;;;1.60;1.50;;;18.30;99.90;;;;;;4939962;29;20189;-67
2021/07/21 01:11:45;;;;;;;0.40;0.20;;;18.20;99.90;;;;;;4956648;29;20180;-66
2021/07/21 01:14:23;;;;;;;0.40;0.20;;;18.30;99.90;;;;;;4939716;29;20194;-67
2021/07/21 01:16:55;;;;;;;1.00;0.60;;;18.40;99.90;;;;;;4956294;29;20911;-66
2021/07/21 01:19:47;;;;;;;0.40;0.20;;;18.50;99.90;;;;;;4956407;29;20436;-66
2021/07/21 01:22:19;;;;;;;0.40;0.20;;;18.50;99.90;;;;;;4956368;29;20802;-67
2021/07/21 01:25:18;;;;;;;0.40;0.20;;;18.50;99.90;;;;;;4939395;29;20467;-66
2021/07/21 01:27:48;;;;;;;0.40;0.20;;;18.50;99.90;;;;;;4956269;29;20451;-67
2021/07/21 01:30:19;;;;;;;0.40;0.20;;;18.60;99.90;;;;;;4956037;29;20768;-67
2021/07/21 01:32:49;;;;;;;3.23;1.27;;;18.50;99.90;;;;;;4956140;29;20495;-66
2021/07/21 01:35:22;;;;;;;0.40;0.20;;;18.60;99.90;;;;;;4956181;29;20431;-66
2021/07/21 01:38:08;;;;;;;0.40;0.20;;;18.60;99.90;;;;;;4956187;29;20503;-67
2021/07/21 01:40:40;;;;;;;0.40;0.20;;;18.50;99.90;;;;;;4956118;29;20494;-67
2021/07/21 01:43:10;;;;;;;0.40;0.20;;;18.50;99.90;;;;;;4956112;29;20567;-67
2021/07/21 01:45:37;;;;;;;0.40;0.20;;;18.50;99.90;;;;;;4955871;29;20432;-67
2021/07/21 01:48:07;;;;;;;0.50;0.50;;;18.50;99.90;;;;;;4955821;29;20877;-66
2021/07/21 01:50:33;;;;;;;0.40;0.20;;;18.50;99.90;;;;;;4956176;29;20807;-67
2021/07/21 01:52:59;;;;;;;0.53;0.43;;;18.30;99.90;;;;;;4956038;29;20510;-67
2021/07/21 01:55:26;;;;;;;0.40;0.13;;;18.30;99.90;;;;;;4955983;29;20428;-67
2021/07/21 01:57:53;;;;;;;0.70;0.50;;;18.40;99.90;;;;;;4955705;29;20808;-66
2021/07/21 02:00:19;;;;;;;0.50;0.30;;;18.40;99.90;;;;;;4955592;29;20487;-66
2021/07/21 02:02:55;;;;;;;0.90;0.50;;;18.30;99.90;;;;;;4955707;29;20471;-66
2021/07/21 02:05:22;;;;;;;1.27;1.17;;;18.00;99.90;;;;;;4955691;29;20443;-66
2021/07/21 02:07:48;;;;;;;1.27;1.17;;;17.90;99.90;;;;;;4955331;28;20511;-66
2021/07/21 02:10:20;;;;;;;0.53;0.47;;;18.00;99.90;;;;;;4955181;29;20900;-67
2021/07/21 02:12:50;;;;;;;0.40;0.20;;;18.10;99.90;;;;;;4955677;29;20434;-67
2021/07/21 02:15:17;;;;;;;0.40;0.20;;;18.20;99.90;;;;;;4938637;29;20486;-66
2021/07/21 02:17:44;;;;;;;0.40;0.20;;;18.20;99.90;;;;;;4955472;29;20956;-67
2021/07/21 02:20:11;;;;;;;6.30;2.63;;;18.30;99.90;;;;;;4955556;29;20751;-66
2021/07/21 02:22:40;;;;;;;0.67;0.37;;;18.20;99.90;;;;;;4938604;29;20813;-66
2021/07/21 02:25:07;;;;;;;0.50;0.30;;;18.10;99.90;;;;;;4955448;29;20443;-66
2021/07/21 02:27:32;;;;;;;0.40;0.20;;;18.20;99.90;;;;;;4955791;29;20790;-67
2021/07/21 02:29:58;;;;;;;0.40;0.20;;;18.30;99.90;;;;;;4955487;29;20431;-66
2021/07/21 02:32:31;;;;;;;0.40;0.20;;;18.20;99.90;;;;;;4955522;29;20617;-67
2021/07/21 02:34:58;;;;;;;0.50;0.40;;;18.20;99.90;;;;;;4955632;29;20283;-66
2021/07/21 02:37:24;;;;;;;0.40;0.20;;;18.20;99.90;;;;;;4955343;29;20432;-67
2021/07/21 02:39:52;;;;;;;0.67;0.67;;;18.10;99.90;;;;;;4938250;29;20758;-66
2021/07/21 02:42:18;;;;;;;0.40;0.20;;;18.00;99.90;;;;;;4955346;29;20475;-66
2021/07/21 02:44:46;;;;;;;0.40;0.20;;;17.90;99.90;;;;;;4955296;29;20438;-66
2021/07/21 02:47:13;;;;;;;1.13;0.47;;;18.00;99.90;;;;;;4955410;29;20623;-66
2021/07/21 02:49:40;;;;;;;0.40;0.20;;;17.80;99.90;;;;;;4955401;29;20511;-66
2021/07/21 02:52:22;;;;;;;0.50;0.40;;;17.80;99.90;;;;;;4955355;29;20451;-67
2021/07/21 02:55:04;;;;;;;2.50;0.93;;;17.80;99.90;;;;;;4955378;29;20868;-67
2021/07/21 02:57:41;;;;;;;0.40;0.20;;;17.80;99.90;;;;;;4955205;29;20434;-67
2021/07/21 03:00:16;;;;;;;0.40;0.20;;;17.90;99.90;;;;;;4955040;29;20438;-67
2021/07/21 03:02:42;;;;;;;1.07;1.07;;;18.00;99.90;;;;;;4955078;29;20458;-67
2021/07/21 03:05:14;;;;;;;0.50;0.50;;;17.90;99.90;;;;;;4955424;29;20462;-66
2021/07/21 03:07:44;;;;;;;0.97;0.97;;;17.90;99.90;;;;;;4955004;29;20455;-66
2021/07/21 03:10:12;;;;;;;0.40;0.20;;;17.90;99.90;;;;;;4955373;29;20815;-67
2021/07/21 03:12:40;;;;;;;0.40;0.20;;;17.90;99.90;;;;;;4955203;29;20438;-66
2021/07/21 03:15:07;;;;;;;0.40;0.20;;;17.90;99.90;;;;;;4955093;29;20592;-66
2021/07/21 03:17:36;;;;;;;0.40;0.20;;;18.20;99.90;;;;;;4954931;29;20444;-66
2021/07/21 03:20:08;;;;;;;0.57;0.50;;;18.20;99.90;;;;;;4956149;28;20431;-66
2021/07/21 03:22:36;;;;;;;0.40;0.20;;;18.20;99.90;;;;;;4958752;29;20801;-66
2021/07/21 03:25:05;;;;;;;0.50;0.50;;;18.10;99.90;;;;;;4958595;29;20503;-66
2021/07/21 03:27:31;;;;;;;0.40;0.20;;;17.90;99.90;;;;;;4958404;29;20434;-66
2021/07/21 03:29:58;;;;;;;0.50;0.50;;;18.00;99.90;;;;;;4958230;29;20764;-67
2021/07/21 03:32:27;;;;;;;2.00;1.90;;;18.00;99.90;;;;;;4958394;29;20440;-66
2021/07/21 03:34:54;;;;;;;1.33;1.00;;;17.90;99.90;;;;;;4958496;29;20462;-67
2021/07/21 03:37:21;;;;;;;0.40;0.20;;;18.00;99.90;;;;;;4958267;29;20430;-67
2021/07/21 03:39:52;;;;;;;3.93;3.63;;;18.10;99.90;;;;;;4958257;29;20433;-66
2021/07/21 03:42:18;;;;;;;0.40;0.20;;;18.00;99.90;;;;;;4958115;29;20494;-67
2021/07/21 03:44:44;;;;;;;0.63;0.57;;;17.90;99.90;;;;;;4958311;29;20435;-67
2021/07/21 03:47:16;;;;;;;0.93;0.93;;;18.00;99.90;;;;;;4958066;29;20424;-66
2021/07/21 03:49:42;;;;;;;0.50;0.30;;;18.00;99.90;;;;;;4958058;29;20431;-66
2021/07/21 03:52:09;;;;;;;0.40;0.20;;;17.90;99.90;;;;;;4958211;29;20432;-66
2021/07/21 03:54:36;;;;;;;0.40;0.23;;;17.80;99.90;;;;;;4958063;29;20919;-66
2021/07/21 03:57:02;;;;;;;1.07;0.97;;;17.80;99.90;;;;;;4957825;29;20835;-66
2021/07/21 03:59:28;;;;;;;0.70;0.70;;;17.70;99.90;;;;;;4958015;29;20435;-66
2021/07/21 04:01:56;;;;;;;0.40;0.20;;;17.80;99.90;;;;;;4957083;29;20490;-66
2021/07/21 04:04:23;;;;;;;0.87;0.83;;;17.90;99.90;;;;;;4958399;29;20172;-66
2021/07/21 04:06:50;;;;;;;0.40;0.23;;;17.90;99.90;;;;;;4957487;29;20447;-66
2021/07/21 04:09:19;;;;;;;0.80;0.80;;;17.80;99.90;;;;;;4957713;29;20432;-66
2021/07/21 04:11:45;;;;;;;0.40;0.20;;;17.90;99.90;;;;;;4957252;29;20439;-67
2021/07/21 04:14:13;;;;;;;0.87;0.73;;;17.80;99.90;;;;;;4957641;29;20419;-66
2021/07/21 04:16:40;;;;;;;0.83;0.83;;;17.90;99.90;;;;;;4957622;29;20434;-66
2021/07/21 04:19:08;;;;;;;0.50;0.30;;;17.90;99.90;;;;;;4957457;29;20877;-67
2021/07/21 04:21:36;;;;;;;1.13;1.10;;;17.80;99.90;;;;;;4957334;29;20542;-66
2021/07/21 04:24:03;;;;;;;0.40;0.23;;;17.90;99.90;;;;;;4957530;29;20436;-66
2021/07/21 04:26:29;;;;;;;8.80;4.07;;;17.90;99.90;;;;;;4957389;29;20806;-66
2021/07/21 04:28:55;;;;;;;0.50;0.30;;;18.00;99.90;;;;;;4957234;29;20424;-67
2021/07/21 04:31:27;;;;;;;0.70;0.60;;;17.90;99.90;;;;;;4939616;29;20842;-67
2021/07/21 04:33:55;;;;;;;0.50;0.50;;;17.70;99.90;;;;;;4957272;29;20442;-66
2021/07/21 04:36:22;;;;;;;7.70;2.97;;;17.70;99.90;;;;;;4957368;29;20438;-66
2021/07/21 04:38:49;;;;;;;0.90;0.70;;;17.70;99.90;;;;;;4956949;29;20462;-66
2021/07/21 04:41:15;;;;;;;0.60;0.50;;;17.60;99.90;;;;;;4957182;29;20426;-66
2021/07/21 04:43:42;;;;;;;0.60;0.60;;;17.70;99.90;;;;;;4957185;29;20472;-67
2021/07/21 04:46:09;;;;;;;1.83;1.73;;;17.70;99.90;;;;;;4956897;29;20457;-66
2021/07/21 04:48:37;;;;;;;0.40;0.20;;;17.70;99.90;;;;;;4956875;29;20494;-66
2021/07/21 04:51:03;;;;;;;1.20;1.03;;;17.70;99.90;;;;;;4957002;29;20883;-66
2021/07/21 04:53:29;;;;;;;2.67;0.53;;;17.60;99.90;;;;;;4956986;29;20450;-66
2021/07/21 04:55:55;;;;;;;0.57;0.57;;;17.80;99.90;;;;;;4956894;29;20427;-66
2021/07/21 04:58:20;;;;;;;0.40;0.20;;;17.90;99.90;;;;;;4956478;29;20438;-66
2021/07/21 05:00:50;;;;;;;0.80;0.80;;;17.90;99.90;;;;;;4956708;29;20334;-67
2021/07/21 05:03:15;;;;;;;0.83;0.67;;;18.00;99.90;;;;;;4956672;29;20730;-66
2021/07/21 05:05:41;;;;;;;0.40;0.20;;;18.10;99.90;;;;;;4956654;29;20459;-68
2021/07/21 05:08:07;;;;;;;1.20;1.10;;;18.10;99.90;;;;;;4956562;29;20255;-67
2021/07/21 05:10:33;;;;;;;1.10;0.67;;;18.10;99.90;;;;;;4956647;29;20432;-66
2021/07/21 05:12:59;;;;;;;3.03;1.70;;;18.20;99.90;;;;;;4956651;29;20606;-66
2021/07/21 05:15:25;;;;;;;1.67;0.97;;;18.30;99.90;;;;;;4956619;29;20459;-66
2021/07/21 05:17:51;;;;;;;1.90;1.03;;;18.30;99.90;;;;;;4956407;29;20434;-66
2021/07/21 05:20:16;;;;;;;0.50;0.40;;;18.30;99.90;;;;;;4956525;29;20192;-66
2021/07/21 05:22:45;;;;;;;0.63;0.57;;;18.10;99.90;;;;;;4956323;29;20212;-66
2021/07/21 05:25:13;;;;;;;0.40;0.20;;;18.20;99.90;;;;;;4956490;29;20203;-66
2021/07/21 05:27:38;;;;;;;0.60;0.40;;;18.20;99.90;;;;;;4956192;29;20428;-66
2021/07/21 05:30:06;;;;;;;0.90;0.40;;;18.20;99.90;;;;;;4956069;29;20900;-67
2021/07/21 05:32:31;;;;;;;0.43;0.27;;;18.30;99.90;;;;;;4956659;29;20251;-67
2021/07/21 05:34:57;;;;;;;1.60;0.30;;;18.50;99.90;;;;;;4956075;29;20439;-66
2021/07/21 05:37:22;;;;;;;1.13;1.13;;;18.50;99.90;;;;;;4958029;29;20633;-67
2021/07/21 05:39:48;;;;;;;1.90;1.80;;;18.50;99.90;;;;;;4958063;29;20247;-66
2021/07/21 05:42:14;;;;;;;0.40;0.10;;;18.50;99.90;;;;;;4958039;29;20223;-66
2021/07/21 05:44:39;;;;;;;0.40;0.20;;;18.40;99.90;;;;;;4957927;29;20210;-66
2021/07/21 05:47:05;;;;;;;0.40;0.20;;;18.60;99.90;;;;;;4957992;29;20293;-66
2021/07/21 05:49:30;;;;;;;2.73;2.10;;;18.60;99.90;;;;;;4957752;29;20507;-66
2021/07/21 05:51:59;;;;;;;0.40;0.20;;;18.50;99.90;;;;;;4956194;29;20237;-65
2021/07/21 05:54:24;;;;;;;0.40;0.20;;;18.60;99.90;;;;;;4956288;28;20551;-66
2021/07/21 05:56:50;;;;;;;0.70;0.60;;;18.70;99.90;;;;;;4956636;29;20450;-63
2021/07/21 05:59:16;;;;;;;0.60;0.60;;;18.70;99.90;;;;;;4938796;29;20203;-63
2021/07/21 06:01:41;;;;;;;0.77;0.60;;;18.80;99.90;;;;;;4955663;29;20204;-63
2021/07/21 06:04:08;;;;;;;0.50;0.40;;;18.80;99.90;;;;;;4955790;29;20266;-64
2021/07/21 06:06:34;;;;;;;0.90;0.77;;;19.00;99.90;;;;;;4955575;29;20212;-63
2021/07/21 06:09:00;;;;;;;1.00;0.40;;;19.10;99.90;;;;;;4955617;29;20432;-65
2021/07/21 06:11:26;;;;;;;0.53;0.53;;;18.90;99.90;;;;;;4955583;29;20432;-65
2021/07/21 06:13:51;;;;;;;0.97;0.60;;;18.90;99.90;;;;;;4957673;29;20490;-66
2021/07/21 06:16:19;;;;;;;0.43;0.20;;;18.80;99.90;;;;;;4957736;29;20183;-66
2021/07/21 06:18:44;;;;;;;0.40;0.20;;;18.70;99.90;;;;;;4957570;29;20267;-66
2021/07/21 06:21:10;;;;;;;0.40;0.20;;;18.80;99.90;;;;;;4940605;29;20518;-66
2021/07/21 06:23:36;;;;;;;1.03;0.80;;;18.80;99.90;;;;;;4940298;29;20188;-66
2021/07/21 06:26:01;;;;;;;0.40;0.20;;;18.90;99.90;;;;;;4940594;29;20283;-66
2021/07/21 06:28:27;;;;;;;0.70;0.67;;;18.90;99.90;;;;;;4957063;29;20693;-66
2021/07/21 06:30:53;;;;;;;0.80;0.80;;;18.90;99.90;;;;;;4957114;29;20708;-66
2021/07/21 06:33:18;;;;;;;0.57;0.53;;;19.10;99.90;;;;;;4957332;29;20199;-66
2021/07/21 06:35:45;;;;;;;1.80;1.70;;;18.90;99.90;;;;;;4957296;29;20180;-66
2021/07/21 06:38:12;;;;;;;0.60;0.60;;;18.90;99.90;;;;;;4940370;29;20526;-66
2021/07/21 06:40:38;;;;;;;0.40;0.20;;;19.00;99.90;;;;;;4957320;29;20431;-66
2021/07/21 06:43:04;;;;;;;0.40;0.20;;;19.20;99.90;;;;;;4956727;29;20538;-66
2021/07/21 06:45:29;;;;;;;0.60;0.50;;;19.60;99.90;;;;;;4956811;29;20177;-66
2021/07/21 06:47:55;;;;;;;0.83;0.53;;;19.60;19.70;;;;;;4957046;29;20184;-66
2021/07/21 06:50:20;;;;;;;1.23;1.13;;;19.50;22.00;;;;;;4956910;29;20184;-66
2021/07/21 06:52:49;;;;;;;1.27;0.30;;;19.60;39.50;;;;;;4957109;29;20184;-67
2021/07/21 06:55:15;;;;;;;0.50;0.30;;;19.70;10.40;;;;;;4957221;28;20473;-66
2021/07/21 06:57:40;;;;;;;0.87;0.53;;;20.00;1.00;;;;;;4943066;29;20431;-66
2021/07/21 07:00:07;;;;;;;1.47;1.13;;;20.10;1.00;;;;;;4959581;29;20266;-64
2021/07/21 07:02:33;;;;;;;3.50;2.10;;;20.10;1.00;;;;;;4927774;29;20230;-66
2021/07/21 07:04:59;;;;;;;1.10;0.47;;;20.20;1.00;;;;;;4960277;29;20531;-66
2021/07/21 07:07:24;;;;;;;0.90;0.50;;;20.50;1.00;;;;;;4960351;29;20177;-66
2021/07/21 07:09:50;;;;;;;2.67;0.90;;;20.50;1.00;;;;;;4958633;29;20520;-65
2021/07/21 07:12:16;;;;;;;1.60;1.50;;;20.50;1.00;;;;;;4959481;29;20188;-66
2021/07/21 07:14:42;;;;;;;0.40;0.20;;;20.50;1.00;;;;;;4942756;29;20180;-66
2021/07/21 07:17:09;;;;;;;1.33;1.23;;;20.60;1.00;;;;;;4959241;29;20439;-67
2021/07/21 07:19:35;;;;;;;2.43;2.17;;;21.10;1.00;;;;;;4958575;29;20531;-63
2021/07/21 07:22:00;;;;;;;0.50;0.30;;;20.50;1.00;;;;;;4958871;29;20467;-66
2021/07/21 07:24:28;;;;;;;0.50;0.30;;;20.40;1.00;;;;;;4958500;29;20514;-66
2021/07/21 07:26:55;;;;;;;0.67;0.60;;;20.70;1.00;;;;;;4942175;29;20180;-65
2021/07/21 07:29:21;;;;;;;1.10;0.37;;;21.00;1.00;;;;;;4959572;29;20439;-66
2021/07/21 07:31:46;;;;;;;1.30;1.20;;;20.80;1.00;;;;;;4959015;29;20424;-64
2021/07/21 07:34:12;;;;;;;2.90;0.90;;;20.60;1.00;;;;;;4958345;29;20624;-66
2021/07/21 07:36:38;;;;;;;1.43;1.07;;;20.60;1.00;;;;;;4958977;29;20540;-66
2021/07/21 07:39:04;;;;;;;1.10;0.43;;;20.40;1.00;;;;;;4958244;28;20184;-65
2021/07/21 07:41:30;;;;;;;0.50;0.20;;;20.40;1.00;;;;;;4959168;29;20645;-64
2021/07/21 07:43:56;;;;;;;1.07;0.97;;;20.20;1.00;;;;;;4958749;29;20463;-64
2021/07/21 07:46:25;;;;;;;2.30;1.03;;;20.40;1.00;;;;;;4958294;29;20192;-64
2021/07/21 07:48:52;;;;;;;0.47;0.20;;;20.60;1.00;;;;;;4959247;29;20187;-66
2021/07/21 07:51:17;;;;;;;1.83;0.37;;;20.50;1.00;;;;;;4961123;29;20535;-67
2021/07/21 07:53:43;;;;;;;0.50;0.30;;;20.70;1.00;;;;;;4961097;29;20909;-67
2021/07/21 07:56:08;;;;;;;0.40;0.20;;;20.80;1.00;;;;;;4961351;29;20247;-66
2021/07/21 07:58:34;;;;;;;0.90;0.60;;;21.10;1.00;;;;;;4960349;29;20173;-65
2021/07/21 08:01:00;;;;;;;1.30;0.90;;;20.80;1.00;;;;;;4961087;29;20223;-66
2021/07/21 08:03:25;;;;;;;0.97;0.77;;;20.70;1.00;;;;;;4961770;29;20204;-66
2021/07/21 08:05:54;;;;;;;0.60;0.50;;;20.60;1.00;;;;;;4960065;28;20207;-64
2021/07/21 08:08:20;;;;;;;0.40;0.20;;;20.80;99.90;;;;;;4957959;29;20319;-63
2021/07/21 08:10:47;;;;;;;0.50;0.33;;;20.80;99.90;;;;;;4958209;29;20835;-64
2021/07/21 08:13:12;;;;;;;0.60;0.30;;;20.90;99.90;;;;;;4958222;29;20451;-64
2021/07/21 08:15:38;;;;;;;0.50;0.30;;;21.30;99.90;;;;;;4942210;29;20920;-63
2021/07/21 08:18:04;;;;;;;0.40;0.20;;;21.20;99.90;;;;;;4960111;29;20495;-66
2021/07/21 08:20:29;;;;;;;4.20;4.00;;;21.20;99.90;;;;;;4959395;29;20263;-63
2021/07/21 08:22:55;;;;;;;0.70;0.63;;;21.30;99.90;;;;;;4942184;29;20583;-63
2021/07/21 08:25:24;;;;;;;0.60;0.60;;;21.30;99.90;;;;;;4958968;29;20466;-63
2021/07/21 08:27:49;;;;;;;0.50;0.30;;;21.10;99.90;;;;;;4958197;29;20606;-65
2021/07/21 08:30:15;;;;;;;1.03;0.77;;;21.10;99.90;;;;;;4957760;29;20428;-65
2021/07/21 08:32:47;;;;;;;0.60;0.40;;;20.80;1.00;;;;;;4957564;29;20243;-65
2021/07/21 08:35:14;;;;;;;0.90;0.90;;;20.10;1.00;;;;;;4958645;29;20529;-66
2021/07/21 08:37:41;;;;;;;1.37;1.27;;;19.30;43.70;;;;;;4957808;29;20443;-65
2021/07/21 08:40:08;;;;;;;3.80;0.70;;;18.70;99.90;;;;;;4957986;29;20526;-63
2021/07/21 08:42:34;;;;;;;0.80;0.60;;;18.80;99.90;;;;;;4957240;29;20467;-63
2021/07/21 08:44:59;;;;;;;1.63;1.50;;;19.00;99.90;;;;;;4957526;29;20424;-63
2021/07/21 08:47:25;;;;;;;2.20;0.60;;;19.10;99.90;;;;;;4958084;29;20176;-66
2021/07/21 08:49:51;;;;;;;0.50;0.40;;;19.30;99.90;;;;;;4957990;29;20602;-65
2021/07/21 08:52:18;;;;;;;0.53;0.50;;;19.50;99.90;;;;;;4957245;29;20191;-63
2021/07/21 08:54:47;;;;;;;2.00;1.90;;;19.40;99.90;;;;;;4958338;29;20193;-63
2021/07/21 08:57:15;;;;;;;2.70;1.50;;;19.20;99.90;;;;;;4956825;29;20424;-64
2021/07/21 08:59:45;;;;;;;2.30;1.23;;;18.70;99.90;;;;;;4957228;29;20749;-63
2021/07/21 09:02:14;;;;;;;0.50;0.30;;;18.30;99.90;;;;;;4958009;29;20475;-65
2021/07/21 09:04:40;;;;;;;1.00;0.97;;;18.30;99.90;;;;;;4957676;29;20438;-66
2021/07/21 09:07:07;;;;;;;0.50;0.33;;;18.40;99.90;;;;;;4957118;29;20447;-63
2021/07/21 09:09:36;;;;;;;1.33;1.23;;;18.30;99.90;;;;;;4956884;29;20762;-63
2021/07/21 09:12:02;;;;;;;2.20;1.23;;;18.50;99.90;;;;;;4957876;29;20436;-63
2021/07/21 09:14:28;;;;;;;1.07;0.33;;;18.30;99.90;;;;;;4957091;29;20928;-65
2021/07/21 09:17:25;;;;;;;0.40;0.20;;;18.40;99.90;;;;;;4956989;29;20488;-65
2021/07/21 09:19:51;;;;;;;4.60;3.63;;;18.20;99.90;;;;;;4940913;29;20440;-66
2021/07/21 09:22:28;;;;;;;2.83;2.33;;;18.40;99.90;;;;;;4956749;29;20459;-65
2021/07/21 09:25:17;;;;;;;1.43;0.97;;;18.30;99.90;;;;;;4956555;29;20172;-65
2021/07/21 09:27:49;;;;;;;0.40;0.20;;;18.20;99.90;;;;;;4957058;29;20455;-62
2021/07/21 09:30:39;;;;;;;1.43;0.57;;;18.50;99.90;;;;;;4956468;29;20495;-62
2021/07/21 09:33:13;;;;;;;0.40;0.20;;;18.90;99.90;;;;;;4945991;29;20502;-63
2021/07/21 09:35:52;;;;;;;1.00;0.77;;;19.10;99.90;;;;;;4956158;29;20955;-63
2021/07/21 09:38:23;;;;;;;1.50;1.03;;;18.70;99.90;;;;;;4955942;29;20432;-63
2021/07/21 09:40:57;;;;;;;1.70;1.60;;;18.70;99.90;;;;;;4956216;29;20479;-63
2021/07/21 09:43:27;;;;;;;2.50;2.30;;;18.30;99.90;;;;;;4939020;29;20875;-63
2021/07/21 09:45:53;;;;;;;2.93;2.17;;;18.20;99.90;;;;;;4955830;29;20467;-63
2021/07/21 09:48:35;;;;;;;0.57;0.43;;;18.20;99.90;;;;;;4955729;29;20467;-63
2021/07/21 09:51:00;;;;;;;0.50;0.30;;;18.20;99.90;;;;;;4956035;29;20455;-63
2021/07/21 09:53:45;;;;;;;0.40;0.20;;;18.20;99.90;;;;;;4955946;29;20988;-63
2021/07/21 09:56:11;;;;;;;1.07;0.97;;;18.80;99.90;;;;;;4956442;29;20256;-63
2021/07/21 09:58:37;;;;;;;2.03;1.93;;;19.10;99.90;;;;;;4955698;29;20482;-63
2021/07/21 10:01:09;;;;;;;0.40;0.20;;;19.20;99.90;;;;;;4956027;29;20199;-63
2021/07/21 10:03:37;;;;;;;0.40;0.20;;;19.60;99.90;;;;;;4955736;29;20486;-64
2021/07/21 10:06:09;;;;;;;0.83;0.63;;;20.10;11.90;;;;;;4955547;29;20460;-62
2021/07/21 10:08:39;;;;;;;0.40;0.20;;;20.40;1.00;;;;;;4938515;29;20901;-62
2021/07/21 10:11:21;;;;;;;0.60;0.57;;;20.80;1.00;;;;;;4955694;29;20427;-62
2021/07/21 10:13:48;;;;;;;0.80;0.40;;;21.10;1.00;;;;;;4955708;29;20447;-64
2021/07/21 10:16:36;;;;;;;1.10;1.00;;;21.10;99.90;;;;;;4955501;29;20432;-63
2021/07/21 10:19:06;;;;;;;1.13;0.53;;;21.20;1.00;;;;;;4938565;29;20454;-63
2021/07/21 10:21:32;;;;;;;1.33;0.70;;;20.20;1.00;;;;;;4955614;29;20423;-63
2021/07/21 10:23:58;;;;;;;1.53;1.43;;;20.00;35.20;;;;;;4955601;29;20428;-63
2021/07/21 10:26:27;;;;;;;0.43;0.20;;;19.80;99.90;;;;;;4938648;29;20446;-63
2021/07/21 10:28:54;;;;;;;0.40;0.20;;;19.90;99.90;;;;;;4955014;29;20564;-63
2021/07/21 10:31:20;;;;;;;0.40;0.20;;;20.10;99.90;;;;;;4955477;29;20519;-63
2021/07/21 10:33:47;;;;;;;1.03;0.93;;;20.40;1.20;;;;;;4955439;29;20431;-63
2021/07/21 10:36:13;;;;;;;0.40;0.20;;;21.00;1.00;;;;;;4955435;29;20498;-63
2021/07/21 10:38:38;;;;;;;0.70;0.70;;;20.90;1.00;;;;;;4955231;29;20478;-63
2021/07/21 10:41:05;;;;;;;1.40;0.77;;;21.50;1.00;;;;;;4955268;29;20447;-63
2021/07/21 10:43:31;;;;;;;0.97;0.97;;;21.60;99.90;;;;;;4955230;29;20211;-63
2021/07/21 10:45:56;;;;;;;0.40;0.20;;;21.50;99.90;;;;;;4955677;29;20438;-66
2021/07/21 10:48:45;;;;;;;0.40;0.20;;;21.60;99.90;;;;;;4955352;29;20516;-66
2021/07/21 10:51:44;;;;;;;1.23;0.70;;;21.70;99.90;;;;;;4956769;29;20187;-66
2021/07/21 10:54:40;;;;;;;0.50;0.40;;;22.10;1.00;;;;;;4956763;29;20428;-66
2021/07/21 11:00:20;;;;;;;0.50;0.30;;;21.80;1.00;;;;;;4956914;29;20438;-66
2021/07/21 11:02:47;;;;;;;1.93;0.77;;;21.20;35.00;;;;;;4957572;29;20941;-66
2021/07/21 11:05:32;;;;;;;0.50;0.30;;;20.90;99.90;;;;;;4958254;29;20463;-66
2021/07/21 11:07:59;;;;;;;1.80;1.70;;;20.70;1.00;;;;;;4956762;29;20424;-66
2021/07/21 11:10:37;;;;;;;1.20;0.60;;;21.10;99.90;;;;;;4956538;29;20543;-66
2021/07/21 11:13:06;;;;;;;0.70;0.20;;;21.10;99.90;;;;;;4956821;29;20427;-67
2021/07/21 11:15:37;;;;;;;0.60;0.37;;;20.90;99.90;;;;;;4957056;29;20486;-66
2021/07/21 11:18:21;;;;;;;3.17;2.97;;;20.80;1.00;;;;;;4956882;29;20428;-67
2021/07/21 11:21:03;;;;;;;0.60;0.40;;;21.20;99.90;;;;;;4957078;29;20446;-66
2021/07/21 11:23:47;;;;;;;0.70;0.70;;;20.80;99.90;;;;;;4956708;29;20478;-66
2021/07/21 11:26:35;;;;;;;0.40;0.20;;;20.70;99.90;;;;;;4957070;29;20424;-66
2021/07/21 11:29:42;;;;;;;0.40;0.20;;;20.70;1.00;;;;;;4956712;29;20458;-67
2021/07/21 11:32:11;;;;;;;1.77;0.90;;;20.90;1.00;;;;;;4956678;29;20909;-66
2021/07/21 11:34:41;;;;;;;0.80;0.50;;;20.90;99.90;;;;;;4957457;29;20431;-67
2021/07/21 11:37:27;;;;;;;0.40;0.20;;;20.70;99.90;;;;;;4956508;29;20459;-66
2021/07/21 11:39:54;;;;;;;0.40;0.20;;;20.80;99.90;;;;;;4956942;29;20487;-66
2021/07/21 11:42:23;;;;;;;0.50;0.30;;;21.00;1.00;;;;;;4959668;28;20551;-66
2021/07/21 11:44:50;;;;;;;0.57;0.50;;;20.90;1.00;;;;;;4960401;29;20419;-66
2021/07/21 11:47:18;;;;;;;1.00;0.73;;;20.80;1.00;;;;;;4958582;29;20519;-64
2021/07/21 11:49:51;;;;;;;0.50;0.40;;;21.20;1.00;;;;;;4957956;29;20773;-63
2021/07/21 11:52:22;;;;;;;5.20;3.07;;;21.30;1.00;;;;;;4958125;29;20438;-63
2021/07/21 11:54:48;;;;;;;0.77;0.77;;;21.30;99.90;;;;;;4958532;29;20431;-64
2021/07/21 11:57:14;;;;;;;2.00;1.07;;;21.20;1.00;;;;;;4957821;29;20428;-63
2021/07/21 11:59:42;;;;;;;0.67;0.67;;;21.10;99.90;;;;;;4957985;29;20439;-64
2021/07/21 12:02:14;;;;;;;0.50;0.40;;;20.70;99.00;;;;;;4957956;29;20766;-64
2021/07/21 12:04:44;;;;;;;0.60;0.30;;;20.50;99.90;;;;;;4958018;29;20438;-63
2021/07/21 12:07:13;;;;;;;1.53;0.90;;;20.40;99.90;;;;;;4957748;29;20430;-63
2021/07/21 12:09:43;;;;;;;1.53;1.37;;;20.80;99.90;;;;;;4957796;29;20428;-62
2021/07/21 12:12:11;;;;;;;0.40;0.20;;;20.90;6.20;;;;;;4957847;29;20432;-62
2021/07/21 12:14:39;;;;;;;2.20;1.60;;;21.00;1.00;;;;;;4957797;29;20456;-64
2021/07/21 12:17:10;;;;;;;0.50;0.50;;;21.30;1.00;;;;;;4957746;29;20889;-62
2021/07/21 12:19:40;;;;;;;0.60;0.43;;;21.50;99.90;;;;;;4940824;29;20450;-64
2021/07/21 12:22:09;;;;;;;0.50;0.30;;;21.70;1.00;;;;;;4940607;29;20511;-62
2021/07/21 12:24:56;;;;;;;0.80;0.73;;;22.10;99.90;;;;;;4957793;29;20424;-64
2021/07/21 12:27:23;;;;;;;1.93;1.60;;;22.40;1.00;;;;;;4956575;29;20439;-64
2021/07/21 12:29:49;;;;;;;0.50;0.20;;;22.20;1.00;;;;;;4957198;29;20483;-64
2021/07/21 12:32:18;;;;;;;3.20;3.00;;;22.10;99.90;;;;;;4957415;29;21031;-64
2021/07/21 12:34:48;;;;;;;2.17;1.37;;;22.30;1.00;;;;;;4957689;29;20436;-63
2021/07/21 12:37:26;;;;;;;1.53;0.60;;;22.70;99.90;;;;;;4957513;29;20737;-63
2021/07/21 12:39:53;;;;;;;0.60;0.57;;;22.50;1.00;;;;;;4957550;29;20507;-66
2021/07/21 12:42:21;;;;;;;0.50;0.30;;;21.80;1.00;;;;;;4958677;29;20559;-66
2021/07/21 12:44:59;;;;;;;1.13;1.07;;;21.50;1.00;;;;;;4959476;29;20420;-67
2021/07/21 12:47:27;;;;;;;0.40;0.20;;;21.90;1.00;;;;;;4959535;29;20423;-66
2021/07/21 12:49:56;;;;;;;0.93;0.73;;;22.10;1.00;;;;;;4959676;29;20439;-66
2021/07/21 12:52:24;;;;;;;2.10;0.83;;;22.30;1.00;;;;;;4958179;28;20475;-66
2021/07/21 12:54:55;;;;;;;0.50;0.30;;;22.20;1.00;;;;;;4958653;29;20431;-66
2021/07/21 12:57:38;;;;;;;1.87;1.77;;;22.40;99.90;;;;;;4959592;29;20451;-66
2021/07/21 13:00:12;;;;;;;0.80;0.30;;;22.20;1.00;;;;;;4942903;29;20864;-67
2021/07/21 13:02:38;;;;;;;0.63;0.40;;;22.10;1.00;;;;;;4958909;29;20467;-67